createdAt,value
2018-01-15T00:02:14.766Z,13.10
2018-01-15T00:04:43.056Z,11.90
2018-01-15T00:07:11.341Z,14.13
2018-01-15T00:09:39.599Z,13.23
2018-01-15T00:12:07.923Z,17.13
2018-01-15T00:14:36.209Z,12.80
2018-01-15T00:17:05.288Z,14.20
2018-01-15T00:19:33.675Z,13.83
2018-01-15T00:22:01.941Z,14.60
2018-01-15T00:24:30.276Z,14.90
2018-01-15T00:26:58.553Z,10.00
2018-01-15T00:29:26.840Z,10.70
2018-01-15T00:31:55.216Z,10.70
2018-01-15T00:34:23.524Z,14.45
2018-01-15T00:36:52.691Z,14.70
2018-01-15T00:39:20.987Z,10.30
2018-01-15T00:41:49.230Z,8.33
2018-01-15T00:44:17.522Z,9.23
2018-01-15T00:46:45.784Z,13.20
2018-01-15T00:49:14.096Z,14.90
2018-01-15T00:51:42.340Z,12.43
2018-01-15T00:54:10.635Z,13.75
2018-01-15T00:56:38.891Z,13.80
2018-01-15T00:59:07.181Z,17.33
2018-01-15T01:01:35.426Z,12.27
2018-01-15T01:04:03.758Z,10.57
2018-01-15T01:06:32.050Z,12.43
2018-01-15T01:09:00.329Z,10.30
2018-01-15T01:11:28.640Z,10.27
2018-01-15T01:13:56.916Z,11.90
2018-01-15T01:16:25.288Z,12.13
2018-01-15T01:18:53.599Z,11.57
2018-01-15T01:21:21.851Z,11.90
2018-01-15T01:23:50.155Z,11.93
2018-01-15T01:26:18.435Z,10.70
2018-01-15T01:28:46.711Z,10.60
2018-01-15T01:31:15.010Z,12.48
2018-01-15T01:33:43.262Z,11.50
2018-01-15T01:36:11.519Z,13.55
2018-01-15T01:38:39.818Z,14.50
2018-01-15T01:41:08.076Z,11.20
2018-01-15T01:43:36.383Z,10.10
2018-01-15T01:46:05.610Z,9.48
2018-01-15T01:48:33.912Z,13.57
2018-01-15T01:51:02.136Z,11.12
2018-01-15T01:53:30.438Z,11.10
2018-01-15T01:55:58.689Z,12.20
2018-01-15T01:58:27.001Z,12.40
2018-01-15T02:00:55.267Z,10.73
2018-01-15T02:03:23.565Z,11.52
2018-01-15T02:05:51.836Z,8.47
2018-01-15T02:08:20.100Z,9.55
2018-01-15T02:10:48.462Z,10.20
2018-01-15T02:13:16.687Z,14.10
2018-01-15T02:15:44.998Z,8.00
2018-01-15T02:18:13.287Z,10.37
2018-01-15T02:20:41.593Z,8.50
2018-01-15T02:23:09.858Z,9.95
2018-01-15T02:25:38.163Z,11.23
2018-01-15T02:28:06.424Z,10.50
2018-01-15T02:30:34.741Z,9.63
2018-01-15T02:33:03.027Z,9.40
2018-01-15T02:35:31.343Z,9.30
2018-01-15T02:37:59.659Z,10.73
2018-01-15T02:40:28.340Z,9.60
2018-01-15T02:42:56.614Z,11.20
2018-01-15T02:45:24.881Z,10.73
2018-01-15T02:47:53.172Z,12.00
2018-01-15T02:50:21.452Z,11.57
2018-01-15T02:52:49.755Z,13.07
2018-01-15T02:55:18.043Z,11.63
2018-01-15T02:57:46.366Z,10.17
2018-01-15T03:00:14.622Z,12.30
2018-01-15T03:02:43.699Z,9.33
2018-01-15T03:05:11.986Z,9.88
2018-01-15T03:07:40.271Z,12.33
2018-01-15T03:10:08.567Z,9.93
2018-01-15T03:12:36.887Z,10.80
2018-01-15T03:15:05.133Z,9.37
2018-01-15T03:17:33.428Z,10.10
2018-01-15T03:20:01.747Z,9.63
2018-01-15T03:22:30.077Z,9.27
2018-01-15T03:24:58.382Z,12.93
2018-01-15T03:27:26.699Z,11.00
2018-01-15T03:29:54.975Z,8.80
2018-01-15T03:32:23.240Z,13.23
2018-01-15T03:34:51.540Z,14.00
2018-01-15T03:37:19.798Z,10.63
2018-01-15T03:39:48.083Z,11.60
2018-01-15T03:42:16.354Z,12.63
2018-01-15T03:44:44.639Z,9.63
2018-01-15T03:47:12.921Z,11.12
2018-01-15T03:49:41.203Z,11.20
2018-01-15T03:52:09.512Z,12.93
2018-01-15T03:54:37.816Z,12.27
2018-01-15T03:57:06.097Z,13.10
2018-01-15T03:59:34.372Z,11.83
2018-01-15T04:02:02.665Z,11.17
2018-01-15T04:04:30.936Z,13.17
2018-01-15T04:06:59.230Z,11.40
2018-01-15T04:09:27.501Z,13.73
2018-01-15T04:11:55.780Z,13.60
2018-01-15T04:14:24.050Z,11.53
2018-01-15T04:16:52.328Z,12.07
2018-01-15T04:19:20.602Z,11.93
2018-01-15T04:21:48.876Z,14.40
2018-01-15T04:24:17.183Z,12.30
2018-01-15T04:26:45.436Z,13.07
2018-01-15T04:29:13.716Z,12.03
2018-01-15T04:31:41.972Z,11.20
2018-01-15T04:34:10.261Z,11.20
2018-01-15T04:36:38.532Z,11.33
2018-01-15T04:39:06.825Z,11.77
2018-01-15T04:41:35.084Z,12.40
2018-01-15T04:44:04.159Z,12.50
2018-01-15T04:46:32.445Z,12.40
2018-01-15T04:49:00.735Z,14.47
2018-01-15T04:51:28.997Z,13.60
2018-01-15T04:53:57.303Z,13.10
2018-01-15T04:56:25.590Z,12.60
2018-01-15T04:58:53.888Z,14.20
2018-01-15T05:01:22.174Z,14.23
2018-01-15T05:03:50.445Z,13.37
2018-01-15T05:06:18.747Z,11.77
2018-01-15T05:08:47.017Z,14.00
2018-01-15T05:11:15.317Z,10.95
2018-01-15T05:13:43.594Z,13.37
2018-01-15T05:16:11.879Z,12.05
2018-01-15T05:18:40.140Z,20.60
2018-01-15T05:21:08.426Z,20.10
2018-01-15T05:23:36.718Z,19.17
2018-01-15T05:26:05.004Z,20.83
2018-01-15T05:28:33.269Z,18.50
2018-01-15T05:31:01.546Z,16.20
2018-01-15T05:33:29.811Z,15.87
2018-01-15T05:35:58.134Z,36.73
2018-01-15T05:38:26.441Z,17.50
2018-01-15T05:40:54.694Z,16.10
2018-01-15T05:43:23.002Z,16.02
2018-01-15T05:45:51.293Z,13.27
2018-01-15T05:48:19.603Z,14.57
2018-01-15T05:50:47.880Z,21.77
2018-01-15T05:53:16.179Z,17.10
2018-01-15T05:55:44.438Z,16.83
2018-01-15T05:58:12.728Z,18.87
2018-01-15T06:00:41.471Z,14.67
2018-01-15T06:03:10.129Z,16.90
2018-01-15T06:05:38.933Z,13.90
2018-01-15T06:08:07.199Z,18.10
2018-01-15T06:10:35.491Z,13.25
2018-01-15T06:13:03.768Z,14.90
2018-01-15T06:15:32.058Z,14.93
2018-01-15T06:18:00.323Z,16.60
2018-01-15T06:20:28.614Z,18.13
2018-01-15T06:22:56.930Z,24.20
2018-01-15T06:25:25.239Z,16.30
2018-01-15T06:27:53.539Z,14.52
2018-01-15T06:30:21.833Z,17.87
2018-01-15T06:32:50.101Z,23.90
2018-01-15T06:35:18.845Z,17.90
2018-01-15T06:37:47.137Z,18.67
2018-01-15T06:40:15.473Z,22.27
2018-01-15T06:42:43.742Z,24.13
2018-01-15T06:45:12.015Z,31.23
2018-01-15T06:47:40.321Z,20.53
2018-01-15T06:50:08.583Z,18.95
2018-01-15T06:52:36.991Z,19.00
2018-01-15T06:55:05.239Z,14.03
2018-01-15T06:57:33.544Z,18.12
2018-01-15T07:00:01.818Z,35.90
2018-01-15T07:02:30.130Z,15.03
2018-01-15T07:04:58.413Z,17.40
2018-01-15T07:07:26.766Z,16.27
2018-01-15T07:09:55.057Z,16.63
2018-01-15T07:12:24.243Z,14.47
2018-01-15T07:14:52.573Z,19.67
2018-01-15T07:17:20.871Z,19.25
2018-01-15T07:19:49.394Z,21.10
2018-01-15T07:22:17.440Z,21.30
2018-01-15T07:24:45.747Z,17.60
2018-01-15T07:27:14.035Z,22.75
2018-01-15T07:29:42.345Z,23.40
2018-01-15T07:32:10.606Z,19.23
2018-01-15T07:34:38.912Z,18.58
2018-01-15T07:37:07.184Z,22.30
2018-01-15T07:39:35.515Z,19.50
2018-01-15T07:42:03.763Z,16.93
2018-01-15T07:44:32.088Z,17.27
2018-01-15T07:47:00.410Z,20.27
2018-01-15T07:49:28.709Z,17.85
2018-01-15T07:51:56.979Z,19.20
2018-01-15T07:54:25.325Z,18.83
2018-01-15T07:56:53.600Z,26.70
2018-01-15T07:59:21.911Z,20.07
2018-01-15T08:01:50.188Z,17.63
2018-01-15T08:04:18.495Z,18.03
2018-01-15T08:06:46.868Z,23.00
2018-01-15T08:09:15.145Z,17.83
2018-01-15T08:11:43.537Z,19.63
2018-01-15T08:14:11.846Z,24.70
2018-01-15T08:16:40.210Z,29.97
2018-01-15T08:19:08.488Z,29.90
2018-01-15T08:21:36.812Z,21.90
2018-01-15T08:24:05.197Z,29.30
2018-01-15T08:26:33.511Z,22.90
2018-01-15T08:29:01.792Z,29.83
2018-01-15T08:31:30.095Z,21.67
2018-01-15T08:33:58.391Z,21.57
2018-01-15T08:36:26.702Z,19.77
2018-01-15T08:38:55.034Z,29.48
2018-01-15T08:41:23.349Z,23.90
2018-01-15T08:43:51.686Z,25.33
2018-01-15T08:46:19.952Z,19.48
2018-01-15T08:48:48.254Z,23.93
2018-01-15T08:51:16.556Z,25.10
2018-01-15T08:53:44.865Z,21.13
2018-01-15T08:56:13.160Z,25.60
2018-01-15T08:58:41.515Z,22.73
2018-01-15T09:01:09.832Z,27.10
2018-01-15T09:03:38.092Z,20.67
2018-01-15T09:06:06.358Z,37.63
2018-01-15T09:08:34.661Z,28.87
2018-01-15T09:11:02.935Z,26.87
2018-01-15T09:13:31.251Z,24.87
2018-01-15T09:15:59.552Z,36.87
2018-01-15T09:18:27.819Z,27.63
2018-01-15T09:20:56.136Z,31.17
2018-01-15T09:23:24.414Z,35.50
2018-01-15T09:25:52.775Z,33.97
2018-01-15T09:28:21.016Z,29.05
2018-01-15T09:30:49.341Z,30.07
2018-01-15T09:33:17.637Z,32.67
2018-01-15T09:35:45.978Z,27.55
2018-01-15T09:38:14.255Z,27.85
2018-01-15T09:40:42.571Z,23.63
2018-01-15T09:43:10.926Z,20.98
2018-01-15T09:45:39.408Z,20.47
2018-01-15T09:48:07.680Z,20.30
2018-01-15T09:50:36.006Z,18.27
2018-01-15T09:53:04.355Z,18.13
2018-01-15T09:55:32.744Z,18.53
2018-01-15T09:58:00.997Z,18.97
2018-01-15T10:00:29.333Z,19.40
2018-01-15T10:02:57.655Z,18.50
2018-01-15T10:05:25.920Z,24.58
2018-01-15T10:07:54.347Z,16.97
2018-01-15T10:10:22.683Z,17.87
2018-01-15T10:12:50.950Z,18.83
2018-01-15T10:15:19.287Z,20.48
2018-01-15T10:17:47.562Z,19.37
2018-01-15T10:20:15.855Z,19.40
2018-01-15T10:22:44.138Z,16.80
2018-01-15T10:25:12.467Z,17.23
2018-01-15T10:27:40.748Z,23.00
2018-01-15T10:30:09.035Z,16.23
2018-01-15T10:32:37.316Z,23.23
2018-01-15T10:35:05.651Z,18.90
2018-01-15T10:37:36.467Z,19.87
2018-01-15T10:40:05.421Z,17.00
2018-01-15T10:42:33.712Z,17.43
2018-01-15T10:45:02.078Z,19.60
2018-01-15T10:47:30.356Z,18.35
2018-01-15T10:49:58.698Z,20.70
2018-01-15T10:52:27.003Z,16.62
2018-01-15T10:54:55.308Z,20.97
2018-01-15T10:57:23.609Z,21.33
2018-01-15T10:59:51.980Z,18.37
2018-01-15T11:02:20.342Z,18.20
2018-01-15T11:04:48.655Z,18.50
2018-01-15T11:07:16.991Z,15.70
2018-01-15T11:09:45.236Z,19.30
2018-01-15T11:12:13.539Z,20.75
2018-01-15T11:14:41.825Z,18.30
2018-01-15T11:17:10.112Z,14.50
2018-01-15T11:19:38.421Z,17.85
2018-01-15T11:22:06.724Z,20.10
2018-01-15T11:24:35.013Z,14.83
2018-01-15T11:27:03.307Z,18.27
2018-01-15T11:29:31.590Z,15.17
2018-01-15T11:31:59.933Z,15.97
2018-01-15T11:34:28.235Z,15.52
2018-01-15T11:36:56.529Z,16.50
2018-01-15T11:39:24.852Z,13.60
2018-01-15T11:41:53.308Z,16.43
2018-01-15T11:44:21.723Z,13.30
2018-01-15T11:46:50.022Z,14.80
2018-01-15T11:49:18.412Z,14.10
2018-01-15T11:51:46.701Z,13.97
2018-01-15T11:54:15.009Z,11.48
2018-01-15T11:56:43.346Z,10.70
2018-01-15T11:59:12.614Z,9.90
2018-01-15T12:01:40.908Z,12.43
2018-01-15T12:04:09.191Z,12.83
2018-01-15T12:06:37.494Z,14.67
2018-01-15T12:09:05.871Z,13.93
2018-01-15T12:11:34.221Z,12.40
2018-01-15T12:14:02.565Z,11.10
2018-01-15T12:16:30.856Z,7.73
2018-01-15T12:18:59.107Z,11.32
2018-01-15T12:21:27.398Z,11.70
2018-01-15T12:23:55.675Z,11.57
2018-01-15T12:26:24.021Z,10.63
2018-01-15T12:28:52.283Z,9.13
2018-01-15T12:31:20.626Z,13.50
2018-01-15T12:33:48.875Z,11.23
2018-01-15T12:36:17.189Z,8.10
2018-01-15T12:38:46.350Z,17.33
2018-01-15T12:41:14.653Z,7.97
2018-01-15T12:43:42.944Z,7.70
2018-01-15T12:46:11.324Z,11.12
2018-01-15T12:48:39.636Z,7.77
2018-01-15T12:51:07.919Z,8.60
2018-01-15T12:53:36.691Z,6.10
2018-01-15T12:56:05.047Z,20.17
2018-01-15T12:58:33.764Z,13.00
2018-01-15T13:01:02.035Z,11.40
2018-01-15T13:03:30.620Z,10.10
2018-01-15T13:06:07.563Z,9.43
2018-01-15T13:11:41.412Z,7.33
2018-01-15T13:14:09.795Z,8.07
2018-01-15T13:16:38.064Z,7.90
2018-01-15T13:19:06.394Z,8.43
2018-01-15T13:21:34.647Z,7.47
2018-01-15T13:24:03.699Z,6.53
2018-01-15T13:26:34.225Z,6.40
2018-01-15T13:29:03.221Z,10.50
2018-01-15T13:31:31.555Z,8.93
2018-01-15T13:33:59.891Z,15.20
2018-01-15T13:36:28.249Z,7.40
2018-01-15T13:38:56.486Z,6.60
2018-01-15T13:41:24.809Z,7.00
2018-01-15T13:43:53.152Z,7.90
2018-01-15T13:46:21.478Z,11.35
2018-01-15T13:48:49.752Z,7.70
2018-01-15T13:51:18.052Z,6.90
2018-01-15T13:53:46.386Z,6.73
2018-01-15T13:56:14.688Z,5.57
2018-01-15T13:58:42.928Z,5.20
2018-01-15T14:01:11.222Z,6.50
2018-01-15T14:03:39.467Z,6.50
2018-01-15T14:06:07.793Z,7.67
2018-01-15T14:08:36.090Z,5.40
2018-01-15T14:11:05.247Z,10.18
2018-01-15T14:13:33.522Z,6.50
2018-01-15T14:16:01.817Z,8.53
2018-01-15T14:18:30.086Z,7.37
2018-01-15T14:20:58.440Z,6.77
2018-01-15T14:23:26.744Z,8.18
2018-01-15T14:25:54.964Z,6.47
2018-01-15T14:28:23.320Z,6.80
2018-01-15T14:30:51.679Z,7.60
2018-01-15T14:33:19.990Z,9.27
2018-01-15T14:35:48.305Z,9.13
2018-01-15T14:38:16.630Z,6.40
2018-01-15T14:40:44.880Z,9.43
2018-01-15T14:43:13.156Z,8.50
2018-01-15T14:45:41.463Z,6.07
2018-01-15T14:48:09.756Z,5.83
2018-01-15T14:50:38.070Z,6.40
2018-01-15T14:53:06.339Z,7.83
2018-01-15T14:55:34.637Z,5.53
2018-01-15T14:58:02.899Z,6.53
2018-01-15T15:00:31.235Z,6.60
2018-01-15T15:02:59.540Z,6.47
2018-01-15T15:05:27.787Z,7.65
2018-01-15T15:07:56.136Z,6.47
2018-01-15T15:10:24.454Z,7.90
2018-01-15T15:12:52.763Z,7.17
2018-01-15T15:15:21.816Z,7.07
2018-01-15T15:17:51.031Z,16.93
2018-01-15T15:20:19.295Z,7.17
2018-01-15T15:22:47.606Z,7.90
2018-01-15T15:25:15.924Z,8.50
2018-01-15T15:27:44.222Z,8.60
2018-01-15T15:30:14.840Z,7.93
2018-01-15T15:32:43.161Z,10.00
2018-01-15T15:35:12.111Z,9.90
2018-01-15T15:37:41.333Z,8.43
2018-01-15T15:40:09.651Z,7.78
2018-01-15T15:42:37.975Z,8.23
2018-01-15T15:45:06.308Z,7.83
2018-01-15T15:47:34.565Z,8.60
2018-01-15T15:50:02.920Z,11.20
2018-01-15T15:52:31.181Z,7.90
2018-01-15T15:54:59.463Z,6.87
2018-01-15T15:57:27.765Z,7.07
2018-01-15T15:59:56.057Z,7.67
2018-01-15T16:02:24.354Z,8.50
2018-01-15T16:04:52.646Z,8.70
2018-01-15T16:07:20.952Z,9.88
2018-01-15T16:09:49.567Z,10.90
2018-01-15T16:12:17.835Z,8.07
2018-01-15T16:14:46.105Z,8.83
2018-01-15T16:17:14.393Z,8.63
2018-01-15T16:19:42.690Z,7.40
2018-01-15T16:22:22.685Z,11.60
2018-01-15T16:24:50.935Z,7.80
2018-01-15T16:27:19.227Z,6.90
2018-01-15T16:29:47.495Z,8.17
2018-01-15T16:32:15.809Z,7.70
2018-01-15T16:34:44.080Z,8.50
2018-01-15T16:37:12.380Z,11.20
2018-01-15T16:39:40.667Z,8.17
2018-01-15T16:42:08.931Z,8.35
2018-01-15T16:44:38.396Z,7.10
2018-01-15T16:47:06.652Z,8.27
2018-01-15T16:49:35.533Z,7.57
2018-01-15T16:52:03.845Z,7.93
2018-01-15T16:54:32.168Z,6.47
2018-01-15T16:57:00.438Z,5.93
2018-01-15T16:59:28.727Z,9.80
2018-01-15T17:01:56.991Z,6.33
2018-01-15T17:04:25.266Z,7.00
2018-01-15T17:06:53.553Z,7.45
2018-01-15T17:09:21.830Z,7.47
2018-01-15T17:11:50.089Z,4.73
2018-01-15T17:14:18.361Z,3.87
2018-01-15T17:16:46.694Z,8.82
2018-01-15T17:19:14.935Z,6.15
2018-01-15T17:21:43.207Z,5.73
2018-01-15T17:24:11.515Z,4.43
2018-01-15T17:26:39.801Z,8.77
2018-01-15T17:29:08.075Z,4.67
2018-01-15T17:31:36.359Z,4.50
2018-01-15T17:34:05.503Z,6.10
2018-01-15T17:36:33.826Z,5.90
2018-01-15T17:39:02.788Z,7.73
2018-01-15T17:41:31.132Z,6.57
2018-01-15T17:43:59.401Z,4.00
2018-01-15T17:46:27.683Z,3.57
2018-01-15T17:48:55.958Z,4.53
2018-01-15T17:51:24.235Z,3.97
2018-01-15T17:53:53.214Z,5.57
2018-01-15T17:56:21.778Z,3.93
2018-01-15T17:58:50.051Z,4.50
2018-01-15T18:01:18.300Z,4.63
2018-01-15T18:03:46.590Z,3.90
2018-01-15T18:06:14.839Z,4.60
2018-01-15T18:08:43.125Z,6.73
2018-01-15T18:11:11.357Z,3.43
2018-01-15T18:13:39.645Z,2.40
2018-01-15T18:16:07.895Z,3.23
2018-01-15T18:18:36.200Z,2.80
2018-01-15T18:21:04.466Z,2.83
2018-01-15T18:23:32.744Z,3.23
2018-01-15T18:26:01.015Z,3.63
2018-01-15T18:28:29.258Z,2.27
2018-01-15T18:30:57.526Z,2.10
2018-01-15T18:33:25.817Z,2.30
2018-01-15T18:35:54.075Z,2.20
2018-01-15T18:38:22.380Z,2.73
2018-01-15T18:40:50.661Z,2.50
2018-01-15T18:43:18.925Z,2.43
2018-01-15T18:45:47.237Z,2.87
2018-01-15T18:48:15.575Z,2.67
2018-01-15T18:50:43.868Z,2.37
2018-01-15T18:53:12.109Z,2.13
2018-01-15T18:55:40.476Z,3.10
2018-01-15T18:58:08.735Z,1.40
2018-01-15T19:00:37.076Z,2.33
2018-01-15T19:03:05.610Z,2.20
2018-01-15T19:05:33.848Z,1.30
2018-01-15T19:08:02.144Z,1.70
2018-01-15T19:10:30.377Z,1.73
2018-01-15T19:12:58.674Z,2.33
2018-01-15T19:15:26.919Z,1.90
2018-01-15T19:17:55.307Z,1.53
2018-01-15T19:20:23.506Z,2.23
2018-01-15T19:22:51.794Z,2.10
2018-01-15T19:25:20.065Z,2.90
2018-01-15T19:27:48.392Z,4.17
2018-01-15T19:30:16.704Z,5.03
2018-01-15T19:32:45.020Z,2.10
2018-01-15T19:35:16.718Z,3.90
2018-01-15T19:37:49.910Z,1.40
2018-01-15T19:40:18.171Z,1.87
2018-01-15T19:42:46.566Z,2.17
2018-01-15T19:45:20.474Z,2.93
2018-01-15T19:47:54.215Z,3.27
2018-01-15T19:50:28.214Z,2.07
2018-01-15T19:53:02.026Z,3.83
2018-01-15T19:55:35.958Z,2.53
2018-01-15T19:58:09.777Z,3.57
2018-01-15T20:00:43.776Z,2.20
2018-01-15T20:06:23.051Z,1.80
2018-01-15T20:08:57.006Z,1.57
2018-01-15T20:11:25.316Z,2.43
2018-01-15T20:13:53.559Z,3.57
2018-01-15T20:16:21.846Z,2.60
2018-01-15T20:18:50.151Z,1.70
2018-01-15T20:21:18.475Z,2.87
2018-01-15T20:23:46.776Z,1.70
2018-01-15T20:26:15.076Z,1.67
2018-01-15T20:28:43.338Z,2.03
2018-01-15T20:31:12.423Z,1.97
2018-01-15T20:33:40.707Z,1.87
2018-01-15T20:36:08.975Z,2.47
2018-01-15T20:38:37.293Z,2.07
2018-01-15T20:41:05.533Z,2.50
2018-01-15T20:43:33.854Z,1.57
2018-01-15T20:46:02.074Z,2.53
2018-01-15T20:48:30.355Z,1.67
2018-01-15T20:50:58.635Z,2.63
2018-01-15T20:53:26.904Z,2.70
2018-01-15T20:55:55.145Z,1.43
2018-01-15T20:58:23.418Z,1.70
2018-01-15T21:00:51.682Z,2.00
2018-01-15T21:03:19.935Z,2.03
2018-01-15T21:05:48.199Z,3.00
2018-01-15T21:08:16.474Z,1.67
2018-01-15T21:10:44.853Z,1.93
2018-01-15T21:13:13.111Z,2.00
2018-01-15T21:15:41.406Z,3.33
2018-01-15T21:18:09.648Z,1.90
2018-01-15T21:20:37.937Z,1.47
2018-01-15T21:23:06.230Z,1.37
2018-01-15T21:25:34.507Z,0.90
2018-01-15T21:28:02.785Z,1.33
2018-01-15T21:30:31.097Z,2.20
2018-01-15T21:32:59.460Z,1.70
2018-01-15T21:35:27.760Z,1.37
2018-01-15T21:37:56.048Z,1.70
2018-01-15T21:40:24.346Z,2.97
2018-01-15T21:42:52.633Z,1.10
2018-01-15T21:45:20.917Z,1.05
2018-01-15T21:47:49.171Z,1.07
2018-01-15T21:50:17.431Z,1.42
2018-01-15T21:52:45.755Z,1.10
2018-01-15T21:55:14.061Z,0.83
2018-01-15T21:57:42.365Z,1.63
2018-01-15T22:00:10.621Z,0.70
2018-01-15T22:02:38.952Z,0.73
2018-01-15T22:05:07.222Z,0.90
2018-01-15T22:07:35.506Z,0.90
2018-01-15T22:10:03.769Z,0.77
2018-01-15T22:12:32.059Z,1.17
2018-01-15T22:15:00.352Z,0.70
2018-01-15T22:17:28.627Z,0.63
2018-01-15T22:19:56.882Z,0.67
2018-01-15T22:22:25.192Z,1.00
2018-01-15T22:24:53.466Z,0.80
2018-01-15T22:27:21.743Z,0.50
2018-01-15T22:29:50.023Z,0.60
2018-01-15T22:32:18.642Z,0.77
2018-01-15T22:34:46.903Z,0.90
2018-01-15T22:37:15.357Z,1.50
2018-01-15T22:39:43.610Z,1.10
2018-01-15T22:42:11.881Z,1.00
2018-01-15T22:44:40.167Z,0.67
2018-01-15T22:47:08.432Z,0.93
2018-01-15T22:49:36.719Z,1.13
2018-01-15T22:52:05.701Z,1.20
2018-01-15T22:54:33.982Z,0.90
2018-01-15T22:57:02.281Z,1.60
2018-01-15T22:59:30.543Z,1.03
2018-01-15T23:01:58.841Z,1.30
2018-01-15T23:04:27.091Z,2.50
2018-01-15T23:06:55.453Z,1.00
2018-01-15T23:09:23.699Z,2.20
2018-01-15T23:11:51.978Z,2.90
2018-01-15T23:14:20.236Z,0.80
2018-01-15T23:16:48.520Z,0.77
2018-01-15T23:19:16.794Z,2.57
2018-01-15T23:21:45.098Z,2.70
2018-01-15T23:24:13.370Z,1.77
2018-01-15T23:26:41.624Z,0.93
2018-01-15T23:29:09.913Z,1.00
2018-01-15T23:31:38.172Z,1.33
2018-01-15T23:34:06.464Z,0.80
2018-01-15T23:36:34.717Z,0.87
2018-01-15T23:39:03.027Z,5.90
2018-01-15T23:41:31.280Z,1.67
2018-01-15T23:43:59.599Z,0.90
2018-01-15T23:46:27.850Z,0.73
2018-01-15T23:48:56.127Z,2.70
2018-01-15T23:51:24.384Z,0.87
2018-01-15T23:53:52.672Z,0.88
2018-01-15T23:56:20.926Z,0.52
2018-01-15T23:58:49.177Z,0.87
